Time;durP1;ratioP1;P1;durP2;ratioP2;P2;SDS_P1;SDS_P2;PMS_P1;PMS_P2;Temp;Humidity;BMP_temperature;BMP_pressure;BME280_temperature;BME280_humidity;BME280_pressure;Samples;Min_cycle;Max_cycle;Signal;HPM_P1;HPM_P2
2021/11/20 00:02:27;;;;;;;50.63;30.77;;;10.30;99.90;;;11.22;100.00;101822.38;5024900;28;20026;-78
2021/11/20 00:04:56;;;;;;;60.95;33.05;;;10.40;99.90;;;11.19;100.00;101828.63;4989309;28;20136;-77
2021/11/20 00:07:23;;;;;;;56.78;31.48;;;10.30;99.90;;;11.20;100.00;101836.69;5022071;28;20081;-78
2021/11/20 00:09:50;;;;;;;55.35;31.02;;;10.30;99.90;;;11.18;100.00;101830.59;4988599;28;20121;-77
2021/11/20 00:12:27;;;;;;;60.05;31.77;;;10.30;99.90;;;11.16;100.00;101834.88;5023518;28;20036;-78
2021/11/20 00:14:54;;;;;;;55.88;31.95;;;10.30;99.90;;;11.16;100.00;101821.72;5004135;28;20393;-76
2021/11/20 00:17:22;;;;;;;56.75;32.13;;;10.30;99.90;;;11.15;100.00;101827.66;5020459;28;20026;-77
2021/11/20 00:19:49;;;;;;;57.85;32.15;;;10.30;99.90;;;11.15;100.00;101824.84;5023389;28;20033;-78
2021/11/20 00:22:39;;;;;;;54.47;31.02;;;10.30;99.90;;;11.17;100.00;101822.56;5021623;28;20041;-79
2021/11/20 00:25:23;;;;;;;59.70;32.33;;;10.30;99.90;;;11.17;100.00;101823.38;5022999;28;20034;-77
2021/11/20 00:27:54;;;;;;;56.50;31.05;;;10.30;99.90;;;11.14;100.00;101818.47;5019634;28;20049;-76
2021/11/20 00:30:29;;;;;;;56.67;31.15;;;10.30;99.90;;;11.15;100.00;101819.25;4987027;28;20133;-78
2021/11/20 00:33:05;;;;;;;51.63;30.60;;;10.30;99.90;;;11.15;100.00;101825.69;5022195;28;20232;-80
2021/11/20 00:35:39;;;;;;;54.45;30.23;;;10.20;99.90;;;11.15;100.00;101817.28;5022902;28;20033;-78
2021/11/20 00:38:09;;;;;;;60.78;33.28;;;10.30;99.90;;;11.18;100.00;101821.38;5002406;28;20067;-79
2021/11/20 00:40:54;;;;;;;53.65;30.27;;;10.30;99.90;;;11.18;100.00;101825.00;5020686;28;20030;-79
2021/11/20 00:43:22;;;;;;;55.70;29.58;;;10.30;99.90;;;11.15;100.00;101817.28;5020273;28;20041;-80
2021/11/20 00:45:49;;;;;;;55.60;32.35;;;10.30;99.90;;;11.15;100.00;101820.09;5002650;28;20121;-80
2021/11/20 00:48:20;;;;;;;55.47;31.48;;;10.30;99.90;;;11.13;100.00;101813.19;5019368;28;20034;-78
2021/11/20 00:50:54;;;;;;;64.72;34.88;;;10.20;99.90;;;11.08;100.00;101806.63;5019532;28;20026;-80
2021/11/20 00:53:20;;;;;;;56.75;30.20;;;10.20;99.90;;;11.13;100.00;101808.41;5004808;28;20038;-78
2021/11/20 00:55:47;;;;;;;58.70;33.40;;;10.20;99.90;;;11.15;100.00;101810.88;5004987;28;20026;-78
2021/11/20 00:58:15;;;;;;;53.95;29.55;;;10.20;99.90;;;11.15;100.00;101816.47;5004662;28;20030;-80
2021/11/20 01:00:50;;;;;;;54.90;30.08;;;10.20;99.90;;;11.13;100.00;101810.38;5019035;28;20069;-77
2021/11/20 01:03:16;;;;;;;54.72;29.77;;;10.20;99.90;;;11.11;100.00;101810.72;5002240;28;20558;-78
2021/11/20 01:05:43;;;;;;;56.20;30.80;;;10.20;99.90;;;11.10;100.00;101809.91;5021338;28;20041;-78
2021/11/20 01:08:14;;;;;;;56.42;31.95;;;10.20;99.90;;;11.07;100.00;101807.78;5021743;28;20026;-80
2021/11/20 01:10:50;;;;;;;53.63;29.85;;;10.20;99.90;;;11.08;100.00;101803.81;5000760;28;20102;-78
2021/11/20 01:13:16;;;;;;;52.78;30.48;;;10.20;99.90;;;11.06;100.00;101810.91;4984449;28;20030;-80
2021/11/20 01:15:59;;;;;;;52.35;29.50;;;10.20;99.90;;;11.07;100.00;101812.56;4981864;28;20050;-79
2021/11/20 01:18:30;;;;;;;55.15;30.00;;;10.20;99.90;;;11.08;100.00;101806.63;4952042;28;20027;-80
2021/11/20 01:20:56;;;;;;;50.45;29.75;;;10.20;99.90;;;11.06;100.00;101794.13;4982543;28;20039;-78
2021/11/20 01:23:27;;;;;;;50.83;29.55;;;10.20;99.90;;;11.10;100.00;101801.53;4999475;28;20039;-77
2021/11/20 01:25:55;;;;;;;48.72;27.13;;;10.20;99.90;;;11.09;100.00;101799.88;4982277;28;20046;-78
2021/11/20 01:28:25;;;;;;;48.28;26.65;;;10.20;99.90;;;11.07;100.00;101793.81;4999368;28;20062;-78
2021/11/20 01:30:52;;;;;;;49.67;28.05;;;10.20;99.90;;;11.05;100.00;101787.72;4982346;28;20030;-78
2021/11/20 01:33:20;;;;;;;51.28;28.30;;;10.20;99.90;;;11.06;100.00;101794.94;5000561;28;20037;-80
2021/11/20 01:35:47;;;;;;;48.20;27.52;;;10.20;99.90;;;11.03;100.00;101792.81;5003137;28;20035;-77
2021/11/20 01:38:15;;;;;;;51.72;28.77;;;10.10;99.90;;;11.04;100.00;101783.25;5001944;28;20054;-80
2021/11/20 01:40:45;;;;;;;56.97;29.67;;;10.20;99.90;;;11.08;100.00;101784.25;5000229;28;20026;-77
2021/11/20 01:43:11;;;;;;;50.80;28.42;;;10.20;99.90;;;11.04;100.00;101777.66;5005741;28;20031;-77
2021/11/20 01:46:20;;;;;;;49.60;27.73;;;10.20;99.90;;;11.02;100.00;101770.78;5005476;28;20062;-78
2021/11/20 01:49:30;;;;;;;47.17;27.75;;;10.20;99.90;;;11.01;100.00;101769.16;4983420;28;20050;-79
2021/11/20 01:52:42;;;;;;;47.55;25.63;;;10.20;99.90;;;11.03;100.00;101773.25;4924160;29;20043;-79
2021/11/20 01:55:50;;;;;;;49.15;26.58;;;10.20;99.90;;;11.04;100.00;101769.28;4986547;28;20030;-79
2021/11/20 01:59:03;;;;;;;51.85;29.13;;;10.20;99.90;;;11.03;100.00;101755.66;5005496;28;20026;-78
2021/11/20 02:01:58;;;;;;;50.65;27.63;;;10.20;99.90;;;11.03;100.00;101750.88;5003932;28;20022;-78
2021/11/20 02:04:42;;;;;;;50.67;27.48;;;10.20;99.90;;;11.01;100.00;101752.38;5004830;28;20062;-79
2021/11/20 02:08:06;;;;;;;48.03;26.25;;;10.20;99.90;;;11.01;100.00;101746.78;5006474;28;20042;-79
2021/11/20 02:10:44;;;;;;;45.78;27.27;;;10.20;99.90;;;10.99;100.00;101763.06;5020832;28;20030;-78
2021/11/20 02:13:20;;;;;;;43.97;25.23;;;10.20;99.90;;;11.01;100.00;101750.38;5022950;28;20030;-80
2021/11/20 02:16:06;;;;;;;49.00;27.58;;;10.10;99.90;;;10.97;100.00;101749.44;5023191;28;20034;-78
2021/11/20 02:18:40;;;;;;;53.25;27.70;;;10.10;99.90;;;10.97;100.00;101737.44;5023875;28;20505;-77
2021/11/20 02:21:23;;;;;;;43.80;25.67;;;10.10;99.90;;;10.95;100.00;101743.34;5026395;28;20072;-79
2021/11/20 02:23:54;;;;;;;55.67;27.38;;;10.10;99.90;;;10.93;100.00;101728.06;5024095;28;20053;-78
2021/11/20 02:26:20;;;;;;;44.00;24.98;;;10.10;99.90;;;10.97;100.00;101734.63;5025448;28;20104;-77
2021/11/20 02:28:48;;;;;;;46.42;26.75;;;10.10;99.90;;;10.97;100.00;101721.47;5024669;28;20041;-80
2021/11/20 02:31:17;;;;;;;48.38;26.50;;;10.10;99.90;;;10.96;100.00;101728.22;5022787;28;20040;-80
2021/11/20 02:33:49;;;;;;;50.03;27.88;;;10.10;99.90;;;10.92;100.00;101730.03;5023161;28;20140;-79
2021/11/20 02:36:24;;;;;;;44.33;26.38;;;10.10;99.90;;;10.95;100.00;101732.16;4991901;28;20034;-80
2021/11/20 02:39:13;;;;;;;47.90;26.55;;;10.10;99.90;;;10.96;100.00;101728.22;5024979;28;20053;-79
2021/11/20 02:41:44;;;;;;;46.92;27.08;;;10.10;99.90;;;10.98;100.00;101730.69;5021996;28;20033;-81
2021/11/20 02:44:13;;;;;;;45.25;26.52;;;10.10;99.90;;;10.96;100.00;101717.03;5024329;28;20080;-78
2021/11/20 02:46:54;;;;;;;42.67;26.45;;;10.10;99.90;;;10.96;100.00;101722.63;5032396;28;20041;-77
2021/11/20 02:49:22;;;;;;;42.55;25.10;;;10.10;99.90;;;10.93;100.00;101722.47;5036418;28;20060;-78
2021/11/20 02:52:06;;;;;;;40.65;25.95;;;10.10;99.90;;;10.93;100.00;101725.28;5015720;28;20042;-78
2021/11/20 02:54:34;;;;;;;43.33;26.67;;;10.00;99.90;;;10.89;100.00;101710.31;5004361;28;20057;-80
2021/11/20 02:57:14;;;;;;;45.33;26.30;;;10.10;99.90;;;10.96;100.00;101714.25;5020811;28;20044;-78
2021/11/20 02:59:41;;;;;;;42.75;25.55;;;10.10;99.90;;;10.94;100.00;101710.16;5004589;28;20131;-80
2021/11/20 03:02:13;;;;;;;46.20;26.65;;;10.10;99.90;;;10.93;100.00;101709.31;5011812;28;20030;-78
2021/11/20 03:04:41;;;;;;;48.05;27.73;;;10.10;99.90;;;10.93;100.00;101708.50;5020111;28;20077;-77
2021/11/20 03:07:08;;;;;;;42.65;24.90;;;10.10;99.90;;;10.91;100.00;101714.44;4986609;28;20030;-80
2021/11/20 03:09:37;;;;;;;45.15;25.08;;;10.00;99.90;;;10.91;100.00;101719.19;5002931;28;20037;-78
2021/11/20 03:12:09;;;;;;;46.25;26.08;;;10.00;99.90;;;10.91;100.00;101714.44;5022170;28;20081;-78
2021/11/20 03:14:36;;;;;;;46.08;26.83;;;10.00;99.90;;;10.88;100.00;101705.91;5023022;28;20022;-79
2021/11/20 03:17:08;;;;;;;46.60;27.58;;;10.00;99.90;;;10.89;100.00;101707.53;5014092;28;20068;-77
2021/11/20 03:19:44;;;;;;;45.13;27.00;;;10.00;99.90;;;10.91;100.00;101711.63;5036003;28;20073;-76
2021/11/20 03:22:29;;;;;;;45.75;25.45;;;10.00;99.90;;;10.87;100.00;101705.06;5031360;28;20033;-79
2021/11/20 03:24:55;;;;;;;43.47;25.40;;;10.00;99.90;;;10.88;100.00;101689.94;5021455;28;20038;-78
2021/11/20 03:27:22;;;;;;;41.72;26.48;;;10.00;99.90;;;10.85;100.00;101689.81;5006480;28;20121;-79
2021/11/20 03:29:50;;;;;;;43.47;26.55;;;10.00;99.90;;;10.88;100.00;101694.72;5025302;28;20052;-79
2021/11/20 03:32:18;;;;;;;45.70;26.10;;;10.00;99.90;;;10.85;100.00;101685.00;5006863;28;20128;-79
2021/11/20 03:34:46;;;;;;;44.20;26.23;;;10.00;99.90;;;10.85;100.00;101687.81;5022706;28;20535;-81
2021/11/20 03:37:14;;;;;;;43.65;25.70;;;10.00;99.90;;;10.86;100.00;101683.84;5004036;28;20081;-80
2021/11/20 03:39:41;;;;;;;49.30;27.00;;;10.00;99.90;;;10.82;100.00;101684.88;5005596;28;20038;-79
2021/11/20 03:42:09;;;;;;;47.20;27.63;;;10.00;99.90;;;10.87;100.00;101682.72;5004413;28;20093;-80
2021/11/20 03:44:35;;;;;;;43.15;26.73;;;10.00;99.90;;;10.88;100.00;101691.94;5006200;28;20184;-78
2021/11/20 03:47:02;;;;;;;46.40;26.85;;;10.00;99.90;;;10.85;100.00;101681.41;5006875;28;20121;-77
2021/11/20 03:49:28;;;;;;;43.58;25.33;;;10.00;99.90;;;10.85;100.00;101682.22;5023450;28;20033;-77
2021/11/20 03:51:54;;;;;;;44.00;26.38;;;10.00;99.90;;;10.84;100.00;101683.38;5005500;28;20076;-78
2021/11/20 03:54:20;;;;;;;42.38;25.65;;;10.00;99.90;;;10.86;100.00;101675.47;5023688;28;20486;-78
2021/11/20 03:56:46;;;;;;;44.13;25.88;;;10.00;99.90;;;10.84;100.00;101685.34;4987895;28;20069;-80
2021/11/20 03:59:12;;;;;;;46.75;27.50;;;10.00;99.90;;;10.83;100.00;101687.31;5021794;28;20037;-80
2021/11/20 04:01:39;;;;;;;42.13;24.63;;;10.00;99.90;;;10.84;100.00;101682.56;5022204;28;20489;-76
2021/11/20 04:04:05;;;;;;;46.38;26.90;;;10.00;99.90;;;10.78;100.00;101687.53;5022008;28;20041;-78
2021/11/20 04:06:31;;;;;;;47.17;25.75;;;9.90;99.90;;;10.75;100.00;101678.97;5005443;28;20026;-80
2021/11/20 04:08:58;;;;;;;44.03;26.77;;;10.00;99.90;;;10.82;100.00;101688.47;5021531;28;20515;-78
2021/11/20 04:11:31;;;;;;;44.30;24.80;;;10.00;99.90;;;10.78;100.00;101684.72;5021591;28;20021;-77
2021/11/20 04:13:59;;;;;;;48.38;25.90;;;10.00;99.90;;;10.83;100.00;101678.13;5005679;28;20026;-80
2021/11/20 04:16:29;;;;;;;38.55;24.10;;;10.00;99.90;;;10.84;100.00;101682.56;5022713;28;20032;-80
2021/11/20 04:18:56;;;;;;;40.03;24.15;;;10.00;99.90;;;10.81;100.00;101681.25;5023026;28;20026;-80
2021/11/20 04:21:24;;;;;;;35.85;22.58;;;10.00;99.90;;;10.81;100.00;101681.25;5004613;28;20489;-78
2021/11/20 04:23:53;;;;;;;37.13;23.75;;;9.90;99.90;;;10.78;100.00;101672.72;5005273;28;20064;-78
2021/11/20 04:26:24;;;;;;;37.45;23.20;;;9.90;99.90;;;10.77;100.00;101669.09;5019637;28;20041;-78
2021/11/20 04:28:50;;;;;;;41.13;23.80;;;9.90;99.90;;;10.75;100.00;101671.44;5003066;28;20033;-80
2021/11/20 04:31:19;;;;;;;37.42;22.50;;;9.90;99.90;;;10.78;100.00;101667.13;5020898;28;20030;-76
2021/11/20 04:33:49;;;;;;;39.30;22.95;;;9.90;99.90;;;10.78;100.00;101658.75;5021267;28;20030;-80
2021/11/20 04:36:17;;;;;;;37.67;22.50;;;9.90;99.90;;;10.74;100.00;101675.38;5021416;28;20526;-80
2021/11/20 04:38:44;;;;;;;34.28;21.58;;;9.90;99.90;;;10.76;100.00;101661.03;5006133;28;20098;-78
2021/11/20 04:41:13;;;;;;;34.53;23.10;;;9.90;99.90;;;10.76;100.00;101661.88;5004888;28;20038;-80
2021/11/20 04:43:44;;;;;;;37.15;21.55;;;9.90;99.90;;;10.75;100.00;101660.25;5073232;22;20471;-76
2021/11/20 04:46:15;;;;;;;38.40;22.45;;;9.90;99.90;;;10.80;100.00;101650.84;5055325;28;20064;-78
2021/11/20 04:48:41;;;;;;;32.47;22.88;;;9.90;99.90;;;10.82;100.00;101660.53;5037251;28;20200;-80
2021/11/20 04:51:09;;;;;;;31.42;19.58;;;9.90;99.90;;;10.79;100.00;101664.00;5053915;28;20405;-77
2021/11/20 04:53:42;;;;;;;29.23;17.80;;;9.90;99.90;;;10.78;100.00;101670.75;5054015;28;20025;-78
2021/11/20 04:56:13;;;;;;;32.47;19.75;;;9.90;99.90;;;10.75;100.00;101665.00;5035524;28;20047;-80
2021/11/20 04:58:40;;;;;;;32.72;20.98;;;9.90;99.90;;;10.74;100.00;101661.41;5035149;28;20112;-79
2021/11/20 05:01:08;;;;;;;30.27;20.52;;;9.90;99.90;;;10.73;100.00;101664.50;5053171;28;20419;-79
2021/11/20 05:03:34;;;;;;;33.55;19.35;;;9.90;99.90;;;10.70;100.00;101667.97;5052798;28;20028;-76
2021/11/20 05:06:01;;;;;;;32.45;19.80;;;9.90;99.90;;;10.71;100.00;101662.06;5053411;28;20392;-78
2021/11/20 05:08:28;;;;;;;33.67;20.40;;;9.90;99.90;;;10.70;100.00;101663.22;5034893;28;20032;-79
2021/11/20 05:10:56;;;;;;;33.22;20.02;;;9.80;99.90;;;10.70;100.00;101654.81;5035089;28;20040;-79
2021/11/20 05:13:26;;;;;;;31.85;20.52;;;9.80;99.90;;;10.68;100.00;101659.13;5035886;28;20056;-77
2021/11/20 05:15:56;;;;;;;31.70;19.27;;;9.80;99.90;;;10.68;100.00;101665.53;5035009;28;20059;-77
2021/11/20 05:18:25;;;;;;;33.60;20.50;;;9.80;99.90;;;10.68;100.00;101650.72;5057171;28;20442;-80
2021/11/20 05:20:59;;;;;;;32.42;19.50;;;9.80;99.90;;;10.67;100.00;101647.13;5039733;28;20037;-79
2021/11/20 05:23:29;;;;;;;29.07;19.50;;;9.80;99.90;;;10.65;100.00;101649.44;5057251;28;20037;-77
2021/11/20 05:25:55;;;;;;;32.67;20.27;;;9.80;99.90;;;10.66;100.00;101650.25;5039396;28;20106;-81
2021/11/20 05:28:22;;;;;;;34.05;22.05;;;9.80;99.90;;;10.67;100.00;101657.47;5057324;28;20483;-78
2021/11/20 05:30:51;;;;;;;40.50;23.80;;;9.80;99.90;;;10.65;100.00;101654.19;5039496;28;20033;-81
2021/11/20 05:33:32;;;;;;;39.38;23.20;;;9.80;99.90;;;10.67;100.00;101649.09;5023733;28;20029;-78
2021/11/20 05:36:00;;;;;;;38.17;22.23;;;9.80;99.90;;;10.67;100.00;101644.31;5040315;28;20033;-80
2021/11/20 05:38:27;;;;;;;40.28;22.02;;;9.80;99.90;;;10.67;100.00;101647.13;5040101;28;20039;-81
2021/11/20 05:40:54;;;;;;;36.13;22.95;;;9.80;99.90;;;10.65;100.00;101643.03;5047103;28;20017;-79
2021/11/20 05:43:22;;;;;;;39.65;22.92;;;9.80;99.90;;;10.66;100.00;101644.66;5044771;28;20033;-79
2021/11/20 05:46:08;;;;;;;40.25;24.20;;;9.80;99.90;;;10.64;100.00;101641.38;5056733;28;20048;-80
2021/11/20 05:48:34;;;;;;;35.45;22.48;;;9.80;99.90;;;10.62;100.00;101643.69;5055418;28;20036;-79
2021/11/20 05:51:00;;;;;;;41.53;24.42;;;9.70;99.90;;;10.58;100.00;101635.97;5056928;28;20033;-79
2021/11/20 05:53:27;;;;;;;41.03;25.55;;;9.80;99.90;;;10.59;100.00;101634.81;5039612;28;20021;-81
2021/11/20 05:55:57;;;;;;;39.20;24.02;;;9.70;99.90;;;10.61;100.00;101639.25;5038848;28;20033;-77
2021/11/20 05:58:25;;;;;;;39.95;23.65;;;9.70;99.90;;;10.62;100.00;101635.31;5038875;28;20040;-78
2021/11/20 06:01:00;;;;;;;41.53;25.17;;;9.70;99.90;;;10.63;100.00;101629.38;5022555;28;20037;-78
2021/11/20 06:03:29;;;;;;;38.20;23.83;;;9.70;99.90;;;10.61;100.00;101631.69;5056450;28;20170;-78
2021/11/20 06:05:55;;;;;;;34.35;22.40;;;9.70;99.90;;;10.63;100.00;101634.97;5038535;28;20041;-78
2021/11/20 06:08:22;;;;;;;41.38;25.13;;;9.70;99.90;;;10.63;100.00;101628.56;5038744;28;20041;-77
2021/11/20 06:10:54;;;;;;;37.63;24.33;;;9.70;99.90;;;10.60;100.00;101624.47;5034557;28;20119;-78
2021/11/20 06:13:22;;;;;;;48.17;26.67;;;9.70;99.90;;;10.64;100.00;101625.44;5036201;28;20056;-80
2021/11/20 06:15:50;;;;;;;49.55;27.20;;;9.80;99.90;;;10.67;100.00;101612.75;5018911;28;20049;-78
2021/11/20 06:18:16;;;;;;;43.55;25.52;;;9.80;99.90;;;10.64;100.00;101616.22;5018578;28;20061;-78
2021/11/20 06:20:46;;;;;;;43.63;25.90;;;9.80;99.90;;;10.57;100.00;101614.78;5035157;28;20044;-77
2021/11/20 06:23:12;;;;;;;40.95;24.13;;;9.80;99.90;;;10.55;100.00;101619.88;5001735;28;20037;-78
2021/11/20 06:25:39;;;;;;;44.47;25.13;;;9.80;99.90;;;10.53;100.00;101619.38;5018230;28;20030;-80
2021/11/20 06:28:06;;;;;;;42.63;25.10;;;9.80;99.90;;;10.53;100.00;101624.19;5036002;28;20056;-78
2021/11/20 06:30:34;;;;;;;44.65;24.48;;;9.80;99.90;;;10.60;100.00;101613.28;5019374;28;20045;-79
2021/11/20 06:33:03;;;;;;;42.65;25.50;;;9.90;99.90;;;10.65;100.00;101621.50;5035962;28;20021;-80
2021/11/20 06:35:35;;;;;;;40.60;23.98;;;9.80;99.90;;;10.70;100.00;101623.25;5018948;28;20028;-78
2021/11/20 06:38:02;;;;;;;42.67;26.00;;;9.80;99.90;;;10.71;100.00;101631.31;5018298;28;20030;-78
2021/11/20 06:40:36;;;;;;;42.63;24.52;;;9.90;99.90;;;10.71;100.00;101622.94;5001991;28;20083;-78
2021/11/20 06:43:09;;;;;;;44.38;23.58;;;9.90;99.90;;;10.74;100.00;101627.88;5018621;28;20045;-80
2021/11/20 06:45:41;;;;;;;39.78;24.90;;;9.90;99.90;;;10.73;100.00;101629.00;5018252;28;20529;-79
2021/11/20 06:48:09;;;;;;;41.08;23.80;;;9.90;99.90;;;10.72;100.00;101627.38;5039115;28;20084;-79
2021/11/20 06:50:40;;;;;;;43.28;24.65;;;9.90;99.90;;;10.70;100.00;101640.84;5026863;28;20026;-81
2021/11/20 06:53:11;;;;;;;39.67;24.20;;;9.90;99.90;;;10.68;100.00;101632.00;5008783;28;20036;-79
2021/11/20 06:55:39;;;;;;;43.65;24.33;;;9.80;99.90;;;10.69;100.00;101632.81;5008515;28;20033;-79
2021/11/20 07:00:45;;;;;;;41.03;23.88;;;9.80;99.90;;;10.72;100.00;101632.16;5039601;28;20029;-79
2021/11/20 07:03:29;;;;;;;41.25;24.33;;;9.80;99.90;;;10.68;100.00;101632.00;5019414;28;20038;-78
2021/11/20 07:06:22;;;;;;;46.35;25.65;;;9.80;99.90;;;10.67;100.00;101626.72;5037057;28;20079;-79
2021/11/20 07:08:55;;;;;;;45.00;25.13;;;9.80;99.90;;;10.70;100.00;101628.84;5025775;28;20116;-81
2021/11/20 07:11:23;;;;;;;43.22;24.60;;;9.80;99.90;;;10.76;100.00;101624.72;5038776;28;20480;-78
2021/11/20 07:13:50;;;;;;;45.20;25.60;;;9.90;99.90;;;10.71;100.00;101630.50;5054958;28;20428;-80
2021/11/20 07:16:23;;;;;;;48.72;26.85;;;9.90;99.90;;;10.72;100.00;101613.41;5056085;28;20442;-80
2021/11/20 07:18:50;;;;;;;46.10;26.08;;;9.90;99.90;;;10.74;100.00;101613.88;5037981;28;20061;-80
2021/11/20 07:21:17;;;;;;;49.25;25.48;;;9.90;99.90;;;10.73;100.00;101617.81;5038571;28;20079;-79
2021/11/20 07:23:44;;;;;;;42.78;25.45;;;9.90;99.90;;;10.76;100.00;101613.53;5056872;28;20028;-80
2021/11/20 07:26:13;;;;;;;48.33;27.10;;;9.90;99.90;;;10.66;100.00;101606.34;5054556;28;20055;-78
2021/11/20 07:28:38;;;;;;;46.63;26.30;;;9.90;99.90;;;10.70;100.00;101610.13;5062492;28;20033;-78
2021/11/20 07:31:05;;;;;;;48.97;25.70;;;9.90;99.90;;;10.72;100.00;101615.38;5066049;28;20064;-77
2021/11/20 07:33:32;;;;;;;44.83;25.63;;;9.90;99.90;;;10.74;100.00;101611.09;5065795;28;20205;-79
2021/11/20 07:36:03;;;;;;;49.50;26.30;;;9.90;99.90;;;10.75;100.00;101609.94;5068750;28;20048;-78
2021/11/20 07:38:46;;;;;;;45.28;25.73;;;9.90;99.90;;;10.77;100.00;101604.84;5051842;28;20033;-79
2021/11/20 07:41:13;;;;;;;47.50;26.90;;;9.90;99.90;;;10.81;100.00;101602.19;5067921;28;20482;-78
2021/11/20 07:43:40;;;;;;;45.80;25.77;;;9.90;99.90;;;10.80;100.00;101597.75;5068377;28;20048;-77
2021/11/20 07:46:11;;;;;;;42.33;25.02;;;10.00;99.90;;;10.83;100.00;101599.88;5052560;28;20029;-79
2021/11/20 07:48:38;;;;;;;47.05;26.60;;;9.90;99.90;;;10.83;100.00;101594.28;5052283;28;20097;-76
2021/11/20 07:51:09;;;;;;;42.50;24.65;;;10.00;99.90;;;10.83;100.00;101595.09;5066729;28;20032;-80
2021/11/20 07:53:36;;;;;;;43.33;24.85;;;10.00;99.90;;;10.84;100.00;101593.94;5065703;28;20032;-80
2021/11/20 07:56:04;;;;;;;47.17;26.30;;;10.00;99.90;;;10.77;100.00;101590.88;5071972;28;20020;-77
2021/11/20 07:58:30;;;;;;;49.75;26.63;;;10.00;99.90;;;10.85;100.00;101591.97;5071013;28;20033;-78
2021/11/20 08:00:57;;;;;;;42.22;24.83;;;10.00;99.90;;;10.86;100.00;101591.63;5065786;28;20025;-79
2021/11/20 08:03:25;;;;;;;48.42;26.02;;;10.00;99.90;;;10.86;100.00;101582.41;5048020;28;20029;-78
2021/11/20 08:05:53;;;;;;;41.55;24.48;;;10.00;99.90;;;10.89;100.00;101590.13;5047013;28;20127;-77
2021/11/20 08:08:24;;;;;;;45.75;25.52;;;10.00;99.90;;;10.86;100.00;101591.63;5062668;28;20056;-80
2021/11/20 08:10:51;;;;;;;44.97;25.17;;;10.00;99.90;;;10.84;100.00;101584.75;5019957;28;20101;-80
2021/11/20 08:13:19;;;;;;;48.08;25.60;;;10.10;99.90;;;10.91;100.00;101587.84;5036550;28;20037;-80
2021/11/20 08:15:47;;;;;;;43.63;23.92;;;10.00;99.90;;;10.94;100.00;101584.34;5037112;28;20026;-80
2021/11/20 08:18:13;;;;;;;44.33;25.15;;;10.10;99.90;;;10.91;100.00;101576.66;5035760;28;20048;-79
2021/11/20 08:20:45;;;;;;;41.03;23.00;;;10.10;99.90;;;10.92;100.00;101564.28;5035967;28;20064;-80
2021/11/20 08:23:13;;;;;;;38.50;23.05;;;10.10;99.90;;;10.97;100.00;101566.91;5002648;28;20041;-80
2021/11/20 08:25:45;;;;;;;41.95;23.52;;;10.10;99.90;;;10.96;100.00;101565.25;5048408;28;20089;-76
2021/11/20 08:28:17;;;;;;;42.03;24.63;;;10.10;99.90;;;10.95;100.00;101560.81;5028391;28;20522;-79
2021/11/20 08:30:46;;;;;;;42.53;23.30;;;10.10;99.90;;;10.95;100.00;101556.06;5037778;28;20033;-78
2021/11/20 08:33:13;;;;;;;49.33;25.30;;;10.20;99.90;;;10.98;100.00;101555.38;5005305;28;20037;-80
2021/11/20 08:35:40;;;;;;;42.92;25.05;;;10.10;99.90;;;10.93;100.00;101555.59;5016145;28;20029;-80
2021/11/20 08:38:11;;;;;;;41.13;24.33;;;10.20;99.90;;;10.99;100.00;101554.22;5025882;28;20496;-80
2021/11/20 08:40:43;;;;;;;43.88;24.48;;;10.20;99.90;;;11.04;100.00;101553.22;5036370;28;20033;-76
2021/11/20 08:43:09;;;;;;;40.90;23.55;;;10.20;99.90;;;11.13;100.00;101553.16;5037615;28;20089;-79
2021/11/20 08:45:50;;;;;;;46.53;24.05;;;10.20;99.90;;;11.13;100.00;101548.38;5056325;28;20045;-75
2021/11/20 08:48:20;;;;;;;43.10;22.92;;;10.30;99.90;;;11.16;100.00;101542.09;5035580;28;20041;-78
2021/11/20 08:51:03;;;;;;;43.92;25.02;;;10.30;99.90;;;11.22;100.00;101537.13;5015928;28;20030;-78
2021/11/20 08:53:30;;;;;;;44.17;23.95;;;10.30;99.90;;;11.26;100.00;101535.28;5020048;28;20033;-79
2021/11/20 08:55:57;;;;;;;46.15;24.70;;;10.40;99.90;;;11.31;100.00;101540.66;5018198;28;20514;-80
2021/11/20 08:58:23;;;;;;;45.15;22.33;;;10.40;99.90;;;11.36;100.00;101534.88;5019053;28;20045;-77
2021/11/20 09:01:16;;;;;;;42.72;24.23;;;10.50;99.90;;;11.38;100.00;101540.94;5036446;28;20041;-80
2021/11/20 09:04:00;;;;;;;40.10;21.20;;;10.50;99.90;;;11.43;100.00;101540.75;5036078;28;20397;-80
2021/11/20 09:06:50;;;;;;;40.78;21.70;;;10.50;99.90;;;11.48;100.00;101544.13;5018581;28;20033;-80
2021/11/20 09:09:48;;;;;;;36.75;22.55;;;10.60;99.90;;;11.52;100.00;101539.50;5052789;28;20085;-78
2021/11/20 09:12:39;;;;;;;37.83;21.48;;;10.70;99.90;;;11.48;100.00;101535.75;5071989;28;20053;-79
2021/11/20 09:15:09;;;;;;;37.05;20.88;;;10.70;99.90;;;11.56;100.00;101537.63;5074643;28;20067;-78
2021/11/20 09:17:35;;;;;;;34.95;21.13;;;10.70;99.90;;;11.55;100.00;101532.41;5076906;28;20020;-78
2021/11/20 09:20:04;;;;;;;35.90;20.00;;;10.70;99.90;;;11.57;100.00;101530.88;5072088;28;20033;-78
2021/11/20 09:22:31;;;;;;;33.92;20.35;;;10.70;99.90;;;11.45;100.00;101521.63;5064858;28;20124;-78
2021/11/20 09:24:57;;;;;;;35.78;22.13;;;10.70;99.90;;;11.39;100.00;101529.41;5064053;28;20028;-78
2021/11/20 09:27:24;;;;;;;35.92;20.95;;;10.70;99.90;;;11.36;100.00;101529.28;5064015;28;20029;-76
2021/11/20 09:29:51;;;;;;;38.83;22.27;;;10.70;99.90;;;11.34;100.00;101524.00;5062135;28;20032;-75
2021/11/20 09:32:18;;;;;;;40.38;22.08;;;10.70;99.90;;;11.36;100.00;101523.69;5043269;28;20033;-76
2021/11/20 09:34:44;;;;;;;39.70;22.13;;;10.70;99.90;;;11.35;100.00;101527.63;5042506;28;20033;-78
2021/11/20 09:37:11;;;;;;;38.92;21.83;;;10.60;99.90;;;11.39;100.00;101523.00;5059464;28;20048;-78
2021/11/20 09:39:39;;;;;;;40.55;23.70;;;10.70;99.90;;;11.42;100.00;101522.31;5039200;28;20023;-77
2021/11/20 09:42:36;;;;;;;38.92;22.85;;;10.70;99.90;;;11.45;100.00;101518.81;5055035;28;20108;-77
2021/11/20 09:45:17;;;;;;;39.67;22.50;;;10.70;99.90;;;11.48;100.00;101521.75;5055036;28;20029;-77
2021/11/20 09:47:59;;;;;;;42.67;23.60;;;10.70;99.90;;;11.45;100.00;101513.22;5055051;28;20032;-79
2021/11/20 09:50:56;;;;;;;40.40;23.10;;;10.80;99.90;;;11.43;100.00;101515.56;5054423;28;20056;-78
2021/11/20 09:53:23;;;;;;;41.25;23.15;;;10.70;99.90;;;11.52;100.00;101507.91;5036794;28;20364;-79
2021/11/20 09:56:07;;;;;;;39.95;24.05;;;10.80;99.90;;;11.49;100.00;101506.59;5038907;28;20033;-77
2021/11/20 09:58:46;;;;;;;44.65;24.55;;;10.70;99.90;;;11.50;100.00;101504.63;5055789;28;20373;-79
2021/11/20 10:01:49;;;;;;;43.05;22.75;;;10.80;99.90;;;11.56;100.00;101497.63;5037093;28;20044;-77
2021/11/20 10:04:51;;;;;;;38.83;23.08;;;10.80;99.90;;;11.58;100.00;101496.16;5038226;28;20032;-77
2021/11/20 10:07:34;;;;;;;40.00;22.75;;;10.80;99.90;;;11.65;100.00;101492.81;5023129;28;20033;-78
2021/11/20 10:10:48;;;;;;;40.40;23.02;;;10.90;99.90;;;11.66;100.00;101491.63;5041124;28;20080;-80
2021/11/20 10:13:33;;;;;;;35.28;21.20;;;10.90;99.90;;;11.69;100.00;101482.53;5034511;28;20021;-79
2021/11/20 10:16:15;;;;;;;41.08;23.77;;;10.90;99.90;;;11.76;100.00;101482.00;5001084;28;20079;-79
2021/11/20 10:19:26;;;;;;;38.85;22.98;;;11.00;99.90;;;11.79;99.25;101484.09;5034522;28;20069;-80
2021/11/20 10:22:19;;;;;;;37.22;20.33;;;11.00;99.90;;;11.78;97.89;101468.50;5018391;28;20400;-80